Time;durP1;ratioP1;P1;durP2;ratioP2;P2;SDS_P1;SDS_P2;PMS_P1;PMS_P2;Temp;Humidity;BMP_temperature;BMP_pressure;BME280_temperature;BME280_humidity;BME280_pressure;Samples;Min_cycle;Max_cycle;Signal;HPM_P1;HPM_P2
2023/12/18 00:00:17;;;;;;;29.27;27.15;;;;;;;;;;5000509;28;20214;-79
2023/12/18 00:02:45;;;;;;;29.33;27.20;;;;;;;;;;5015235;28;20240;-79
2023/12/18 00:05:12;;;;;;;30.85;28.25;;;;;;;;;;4999109;28;20542;-80
2023/12/18 00:07:39;;;;;;;30.30;27.80;;;;;;;;;;4997613;28;20296;-79
2023/12/18 00:10:06;;;;;;;29.10;26.92;;;;;;;;;;4997018;28;20249;-79
2023/12/18 00:12:36;;;;;;;29.52;27.40;;;;;;;;;;4995616;28;20674;-80
2023/12/18 00:15:03;;;;;;;28.38;26.52;;;;;;;;;;4996121;28;20685;-80
2023/12/18 00:17:30;;;;;;;30.45;28.20;;;;;;;;;;5011679;28;20229;-79
2023/12/18 00:19:57;;;;;;;28.88;26.48;;;;;;;;;;5015644;28;20279;-81
2023/12/18 00:22:24;;;;;;;27.85;25.95;;;;;;;;;;5016018;28;20598;-80
2023/12/18 00:24:51;;;;;;;27.92;26.02;;;;;;;;;;5015849;28;20217;-80
2023/12/18 00:27:19;;;;;;;27.88;25.90;;;;;;;;;;5015334;28;20233;-79
2023/12/18 00:29:48;;;;;;;29.60;27.55;;;;;;;;;;5015527;28;20661;-79
2023/12/18 00:32:15;;;;;;;28.30;26.38;;;;;;;;;;5010824;28;20640;-79
2023/12/18 00:34:42;;;;;;;28.80;26.80;;;;;;;;;;5016099;28;20213;-79
2023/12/18 00:37:09;;;;;;;28.20;26.02;;;;;;;;;;5016002;28;20225;-79
2023/12/18 00:39:36;;;;;;;29.35;27.20;;;;;;;;;;5015318;28;20640;-80
2023/12/18 00:42:04;;;;;;;29.20;27.20;;;;;;;;;;5013981;28;20283;-80
2023/12/18 00:44:31;;;;;;;29.48;27.27;;;;;;;;;;5014649;28;20562;-80
2023/12/18 00:46:59;;;;;;;29.08;27.15;;;;;;;;;;5014942;28;20229;-79
2023/12/18 00:49:27;;;;;;;28.05;26.15;;;;;;;;;;5015231;28;20259;-78
2023/12/18 00:51:54;;;;;;;29.65;27.23;;;;;;;;;;5015250;28;20205;-79
2023/12/18 00:54:21;;;;;;;28.00;26.15;;;;;;;;;;5015526;28;20221;-79
2023/12/18 00:56:48;;;;;;;30.58;28.27;;;;;;;;;;5015517;28;20222;-80
2023/12/18 00:59:15;;;;;;;28.65;26.40;;;;;;;;;;5014184;28;20213;-80
2023/12/18 01:01:42;;;;;;;31.17;28.52;;;;;;;;;;5014613;28;20607;-79
2023/12/18 01:04:11;;;;;;;29.30;27.00;;;;;;;;;;5005667;28;20220;-79
2023/12/18 01:06:38;;;;;;;27.75;25.80;;;;;;;;;;4996149;28;20233;-79
2023/12/18 01:09:05;;;;;;;27.20;25.40;;;;;;;;;;5016216;28;20209;-80
2023/12/18 01:11:32;;;;;;;26.40;24.35;;;;;;;;;;5014971;28;20217;-79
2023/12/18 01:13:59;;;;;;;27.42;25.20;;;;;;;;;;5015575;28;20744;-80
2023/12/18 01:16:26;;;;;;;27.35;25.23;;;;;;;;;;5015149;28;20299;-79
2023/12/18 01:18:53;;;;;;;27.38;25.20;;;;;;;;;;5015156;28;20214;-80
2023/12/18 01:21:21;;;;;;;26.93;24.67;;;;;;;;;;5015362;28;20205;-80
2023/12/18 01:23:48;;;;;;;26.98;25.08;;;;;;;;;;5014795;28;20482;-80
2023/12/18 01:26:15;;;;;;;26.48;24.48;;;;;;;;;;5015025;28;20581;-80
2023/12/18 01:28:42;;;;;;;25.80;23.55;;;;;;;;;;5015062;28;20202;-79
2023/12/18 01:31:09;;;;;;;26.10;24.25;;;;;;;;;;5014441;28;20260;-80
2023/12/18 01:33:36;;;;;;;23.77;21.88;;;;;;;;;;5015411;28;20233;-80
2023/12/18 01:36:03;;;;;;;25.05;23.45;;;;;;;;;;5015019;28;20225;-80
2023/12/18 01:38:31;;;;;;;24.08;22.38;;;;;;;;;;5014871;28;20240;-79
2023/12/18 01:40:58;;;;;;;25.83;23.65;;;;;;;;;;5014701;28;20209;-80
2023/12/18 01:43:25;;;;;;;25.77;23.85;;;;;;;;;;5015130;28;20205;-79
2023/12/18 01:45:55;;;;;;;20.60;19.37;;;;;;;;;;5014341;28;20229;-79
2023/12/18 01:48:22;;;;;;;24.90;22.65;;;;;;;;;;5014886;28;20460;-80
2023/12/18 01:50:49;;;;;;;24.20;22.15;;;;;;;;;;5011273;28;20554;-81
2023/12/18 01:53:16;;;;;;;26.02;23.75;;;;;;;;;;4998364;28;20241;-81
2023/12/18 01:55:45;;;;;;;23.63;21.58;;;;;;;;;;4999467;28;20210;-80
2023/12/18 01:58:13;;;;;;;23.63;22.02;;;;;;;;;;4998519;28;20616;-80
2023/12/18 02:00:40;;;;;;;21.55;20.15;;;;;;;;;;4999077;28;20210;-80
2023/12/18 02:03:08;;;;;;;20.07;18.67;;;;;;;;;;4998744;28;20202;-79
2023/12/18 02:05:35;;;;;;;22.10;20.42;;;;;;;;;;4998175;28;20449;-80
2023/12/18 02:08:02;;;;;;;24.40;22.20;;;;;;;;;;4999074;28;20333;-79
2023/12/18 02:10:30;;;;;;;23.35;21.70;;;;;;;;;;4998517;28;20206;-80
2023/12/18 02:12:58;;;;;;;23.00;20.93;;;;;;;;;;4998914;28;20717;-79
2023/12/18 02:15:25;;;;;;;21.70;19.50;;;;;;;;;;4998640;28;20921;-79
2023/12/18 02:17:52;;;;;;;23.73;21.80;;;;;;;;;;4998666;28;20504;-79
2023/12/18 02:20:19;;;;;;;20.58;19.30;;;;;;;;;;4999071;28;20194;-80
2023/12/18 02:22:52;;;;;;;25.07;22.77;;;;;;;;;;4998151;28;20284;-80
2023/12/18 02:25:20;;;;;;;20.50;19.10;;;;;;;;;;4998077;28;20442;-79
2023/12/18 02:27:48;;;;;;;27.15;24.50;;;;;;;;;;5000457;28;20504;-81
2023/12/18 02:30:15;;;;;;;27.50;23.88;;;;;;;;;;5017946;28;20213;-79
2023/12/18 02:32:42;;;;;;;25.20;22.52;;;;;;;;;;5012997;28;20236;-82
2023/12/18 02:35:09;;;;;;;28.50;25.38;;;;;;;;;;5006456;28;20276;-81
2023/12/18 02:37:36;;;;;;;27.67;25.30;;;;;;;;;;5015960;28;20225;-81
2023/12/18 02:40:05;;;;;;;20.05;18.65;;;;;;;;;;4998228;28;20272;-80
2023/12/18 02:42:32;;;;;;;25.50;23.30;;;;;;;;;;4997339;28;20659;-80
2023/12/18 02:44:59;;;;;;;23.63;21.87;;;;;;;;;;4998014;28;20214;-80
2023/12/18 02:47:27;;;;;;;27.98;25.67;;;;;;;;;;4996822;28;20878;-80
2023/12/18 02:49:54;;;;;;;23.17;21.50;;;;;;;;;;4996967;28;20272;-80
2023/12/18 02:52:21;;;;;;;27.48;20.58;;;;;;;;;;4996748;28;20210;-80
2023/12/18 02:54:48;;;;;;;23.35;21.27;;;;;;;;;;4997317;28;20209;-80
2023/12/18 02:57:16;;;;;;;26.40;24.03;;;;;;;;;;4997505;28;20222;-81
2023/12/18 02:59:43;;;;;;;23.60;21.38;;;;;;;;;;4997545;28;20507;-80
2023/12/18 03:02:10;;;;;;;27.75;25.55;;;;;;;;;;5004643;28;20214;-79
2023/12/18 03:04:39;;;;;;;28.42;25.83;;;;;;;;;;4996811;28;20245;-80
2023/12/18 03:07:07;;;;;;;27.90;25.33;;;;;;;;;;5009317;28;20252;-80
2023/12/18 03:09:34;;;;;;;25.65;23.42;;;;;;;;;;5015216;28;20437;-81
2023/12/18 03:12:01;;;;;;;29.17;26.88;;;;;;;;;;5013554;28;20319;-81
2023/12/18 03:14:29;;;;;;;29.42;26.92;;;;;;;;;;4995852;28;20214;-80
2023/12/18 03:16:56;;;;;;;30.27;27.55;;;;;;;;;;4996076;28;20222;-81
2023/12/18 03:19:23;;;;;;;29.90;27.20;;;;;;;;;;5011684;28;20280;-80
2023/12/18 03:21:50;;;;;;;27.52;24.95;;;;;;;;;;5015388;28;20209;-81
2023/12/18 03:24:17;;;;;;;27.52;25.30;;;;;;;;;;5015891;28;20284;-81
2023/12/18 03:26:44;;;;;;;24.80;23.10;;;;;;;;;;5015000;28;20256;-81
2023/12/18 03:29:11;;;;;;;28.27;25.77;;;;;;;;;;5014890;28;20228;-80
2023/12/18 03:31:39;;;;;;;30.58;27.48;;;;;;;;;;5013945;28;20214;-81
2023/12/18 03:34:06;;;;;;;28.30;25.52;;;;;;;;;;5014601;28;20202;-80
2023/12/18 03:36:33;;;;;;;28.92;26.60;;;;;;;;;;5014832;28;20252;-81
2023/12/18 03:39:00;;;;;;;27.43;25.03;;;;;;;;;;5015151;28;20662;-79
2023/12/18 03:41:27;;;;;;;27.58;24.77;;;;;;;;;;5007204;28;20543;-80
2023/12/18 03:43:54;;;;;;;31.45;24.88;;;;;;;;;;4996012;28;20202;-80
2023/12/18 03:46:21;;;;;;;29.00;26.63;;;;;;;;;;4996177;28;20226;-80
2023/12/18 03:48:49;;;;;;;26.45;23.75;;;;;;;;;;4996033;28;20487;-80
2023/12/18 03:51:16;;;;;;;24.35;22.30;;;;;;;;;;4995611;28;20229;-80
2023/12/18 03:53:43;;;;;;;28.63;26.42;;;;;;;;;;4995845;28;20217;-80
2023/12/18 03:56:10;;;;;;;23.42;21.58;;;;;;;;;;4996093;28;20222;-80
2023/12/18 03:58:37;;;;;;;24.83;22.90;;;;;;;;;;4995951;28;20268;-79
2023/12/18 04:01:04;;;;;;;35.08;31.25;;;;;;;;;;4995424;28;20214;-80
2023/12/18 04:03:31;;;;;;;23.33;21.33;;;;;;;;;;4995748;28;20659;-80
2023/12/18 04:06:00;;;;;;;26.60;24.67;;;;;;;;;;4995913;28;20230;-80
2023/12/18 04:08:27;;;;;;;39.95;36.03;;;;;;;;;;4995980;28;20284;-80
2023/12/18 04:10:54;;;;;;;26.08;23.83;;;;;;;;;;4995116;28;20959;-80
2023/12/18 04:13:21;;;;;;;30.88;28.00;;;;;;;;;;4996584;28;20206;-80
2023/12/18 04:15:48;;;;;;;25.45;23.10;;;;;;;;;;5010287;28;20233;-80
2023/12/18 04:18:15;;;;;;;25.42;23.50;;;;;;;;;;5007280;28;20246;-80
2023/12/18 04:20:41;;;;;;;22.27;20.80;;;;;;;;;;4999813;28;20213;-81
2023/12/18 04:23:10;;;;;;;25.60;23.30;;;;;;;;;;5015834;28;20205;-80
2023/12/18 04:25:37;;;;;;;26.33;24.08;;;;;;;;;;5015162;28;20213;-81
2023/12/18 04:28:04;;;;;;;20.33;19.05;;;;;;;;;;5014903;28;20279;-80
2023/12/18 04:30:30;;;;;;;23.40;21.70;;;;;;;;;;5014227;28;20206;-81
2023/12/18 04:32:58;;;;;;;26.60;24.30;;;;;;;;;;5007476;28;20212;-80
2023/12/18 04:35:25;;;;;;;22.00;20.50;;;;;;;;;;5014935;28;20226;-80
2023/12/18 04:37:52;;;;;;;24.70;22.90;;;;;;;;;;4995941;28;20222;-80
2023/12/18 04:40:20;;;;;;;21.73;20.25;;;;;;;;;;4998996;28;20214;-80
2023/12/18 04:42:47;;;;;;;25.57;23.67;;;;;;;;;;5014016;28;20201;-80
2023/12/18 04:45:14;;;;;;;27.85;25.42;;;;;;;;;;5015124;28;20462;-80
2023/12/18 04:47:41;;;;;;;28.98;26.27;;;;;;;;;;5014633;28;20225;-81
2023/12/18 04:50:08;;;;;;;24.87;22.77;;;;;;;;;;5014952;28;20209;-80
2023/12/18 04:52:35;;;;;;;21.95;20.35;;;;;;;;;;5014237;28;20988;-80
2023/12/18 04:55:02;;;;;;;27.33;25.13;;;;;;;;;;5014755;28;20662;-81
2023/12/18 04:57:31;;;;;;;27.35;25.10;;;;;;;;;;5015492;28;20229;-79
2023/12/18 04:59:58;;;;;;;24.45;22.75;;;;;;;;;;5015053;28;20220;-80
2023/12/18 05:02:24;;;;;;;31.17;28.17;;;;;;;;;;5014280;28;20209;-80
2023/12/18 05:04:51;;;;;;;28.02;25.35;;;;;;;;;;5014979;28;20662;-80
2023/12/18 05:07:18;;;;;;;31.92;28.95;;;;;;;;;;5014625;28;20524;-80
2023/12/18 05:09:45;;;;;;;26.65;24.40;;;;;;;;;;5014728;28;20205;-80
2023/12/18 05:12:12;;;;;;;31.02;28.13;;;;;;;;;;5013961;28;20232;-80
2023/12/18 05:14:41;;;;;;;28.73;26.30;;;;;;;;;;5014514;28;20205;-81
2023/12/18 05:17:09;;;;;;;23.30;21.77;;;;;;;;;;5014348;28;20960;-80
2023/12/18 05:19:36;;;;;;;29.88;26.88;;;;;;;;;;5014592;28;20631;-80
2023/12/18 05:22:03;;;;;;;24.38;22.50;;;;;;;;;;5014401;28;20214;-80
2023/12/18 05:24:30;;;;;;;22.60;20.80;;;;;;;;;;5014496;28;20206;-79
2023/12/18 05:26:57;;;;;;;29.83;27.33;;;;;;;;;;5015804;28;20968;-80
2023/12/18 05:29:24;;;;;;;33.40;30.60;;;;;;;;;;5016673;28;21109;-80
2023/12/18 05:31:53;;;;;;;31.27;28.20;;;;;;;;;;5017669;28;20201;-80
2023/12/18 05:34:19;;;;;;;27.80;25.60;;;;;;;;;;5018918;28;20496;-79
2023/12/18 05:36:46;;;;;;;32.42;29.52;;;;;;;;;;5018055;28;20283;-80
2023/12/18 05:39:13;;;;;;;30.48;27.77;;;;;;;;;;5015429;28;20236;-81
2023/12/18 05:41:40;;;;;;;32.50;29.23;;;;;;;;;;4997652;28;20214;-80
2023/12/18 05:44:07;;;;;;;30.77;27.92;;;;;;;;;;4998359;28;20729;-80
2023/12/18 05:46:34;;;;;;;31.98;29.20;;;;;;;;;;5003450;28;20682;-80
2023/12/18 05:49:03;;;;;;;28.60;26.13;;;;;;;;;;5010862;28;20358;-80
2023/12/18 05:51:29;;;;;;;33.90;30.30;;;;;;;;;;5017216;28;20201;-80
2023/12/18 05:53:56;;;;;;;24.33;22.38;;;;;;;;;;5017950;28;20280;-80
2023/12/18 05:56:23;;;;;;;31.47;28.47;;;;;;;;;;5017768;28;20225;-81
2023/12/18 05:58:51;;;;;;;30.30;27.52;;;;;;;;;;5017987;28;20469;-80
2023/12/18 06:01:19;;;;;;;27.83;25.45;;;;;;;;;;5016862;28;20722;-80
2023/12/18 06:03:46;;;;;;;27.48;24.70;;;;;;;;;;5003485;28;20237;-81
2023/12/18 06:06:14;;;;;;;31.35;27.95;;;;;;;;;;5014829;28;20218;-82
2023/12/18 06:08:41;;;;;;;33.40;29.83;;;;;;;;;;5018577;28;20225;-82
2023/12/18 06:11:08;;;;;;;35.72;31.92;;;;;;;;;;5009734;28;20210;-82
2023/12/18 06:13:35;;;;;;;32.05;29.20;;;;;;;;;;5018131;28;20502;-81
2023/12/18 06:16:02;;;;;;;30.80;27.60;;;;;;;;;;5018803;28;20225;-80
2023/12/18 06:18:29;;;;;;;27.03;24.67;;;;;;;;;;5018069;28;20480;-81
2023/12/18 06:20:56;;;;;;;36.00;32.53;;;;;;;;;;5000872;28;20453;-81
2023/12/18 06:23:25;;;;;;;35.28;31.63;;;;;;;;;;4999974;28;20265;-80
2023/12/18 06:25:52;;;;;;;26.20;23.98;;;;;;;;;;5005102;28;20216;-81
2023/12/18 06:28:19;;;;;;;28.23;25.77;;;;;;;;;;5005791;28;20293;-81
2023/12/18 06:30:46;;;;;;;39.92;29.83;;;;;;;;;;4998076;28;20434;-81
2023/12/18 06:33:14;;;;;;;33.97;30.88;;;;;;;;;;5011592;28;20264;-81
2023/12/18 06:35:41;;;;;;;33.50;30.30;;;;;;;;;;5017392;28;20949;-81
2023/12/18 06:38:08;;;;;;;33.88;30.65;;;;;;;;;;4997667;28;20202;-81
2023/12/18 06:40:37;;;;;;;31.33;28.10;;;;;;;;;;5000789;28;20279;-80
2023/12/18 06:43:04;;;;;;;36.55;32.65;;;;;;;;;;5017066;28;20502;-81
2023/12/18 06:45:31;;;;;;;26.03;23.73;;;;;;;;;;5017856;28;20267;-81
2023/12/18 06:47:58;;;;;;;32.20;29.05;;;;;;;;;;5017591;28;20484;-81
2023/12/18 06:50:25;;;;;;;30.60;27.90;;;;;;;;;;5017453;28;20220;-80
2023/12/18 06:52:53;;;;;;;34.83;31.50;;;;;;;;;;5016836;28;20480;-81
2023/12/18 06:55:21;;;;;;;26.92;24.63;;;;;;;;;;5018348;28;20448;-80
2023/12/18 06:57:49;;;;;;;33.37;30.00;;;;;;;;;;5016957;28;20230;-81
2023/12/18 07:00:16;;;;;;;33.63;30.17;;;;;;;;;;5017327;28;20439;-81
2023/12/18 07:02:43;;;;;;;35.10;31.45;;;;;;;;;;5015909;28;20236;-81
2023/12/18 07:05:11;;;;;;;32.20;29.00;;;;;;;;;;5017457;28;20248;-81
2023/12/18 07:07:38;;;;;;;32.78;29.38;;;;;;;;;;5017302;28;20701;-81
2023/12/18 07:10:06;;;;;;;26.58;24.42;;;;;;;;;;5015592;28;20217;-81
2023/12/18 07:12:34;;;;;;;37.25;29.92;;;;;;;;;;5016717;28;20206;-81
2023/12/18 07:15:03;;;;;;;33.78;30.38;;;;;;;;;;5017120;28;20677;-79
2023/12/18 07:17:30;;;;;;;34.08;30.15;;;;;;;;;;5017218;28;21011;-80
2023/12/18 07:19:57;;;;;;;31.70;28.58;;;;;;;;;;5017459;28;20275;-80
2023/12/18 07:22:24;;;;;;;34.38;30.77;;;;;;;;;;5017999;28;20201;-80
2023/12/18 07:24:51;;;;;;;33.30;29.58;;;;;;;;;;5017700;28;20593;-79
2023/12/18 07:27:17;;;;;;;32.70;29.23;;;;;;;;;;5017738;28;20233;-79
2023/12/18 07:29:44;;;;;;;32.70;29.02;;;;;;;;;;5018285;28;20484;-81
2023/12/18 07:32:13;;;;;;;34.20;30.80;;;;;;;;;;5013782;28;20201;-77
2023/12/18 07:34:40;;;;;;;29.98;26.98;;;;;;;;;;5011939;28;20944;-77
2023/12/18 07:37:07;;;;;;;34.67;31.08;;;;;;;;;;5012128;28;20213;-77
2023/12/18 07:39:34;;;;;;;31.75;28.80;;;;;;;;;;5012519;28;20218;-77
2023/12/18 07:42:01;;;;;;;26.23;24.00;;;;;;;;;;5011461;28;20340;-78
2023/12/18 07:44:29;;;;;;;26.87;24.47;;;;;;;;;;5012179;28;20419;-75
2023/12/18 07:46:56;;;;;;;29.13;26.63;;;;;;;;;;5005027;28;20512;-75
2023/12/18 07:49:24;;;;;;;32.17;29.27;;;;;;;;;;4992377;28;20277;-75
2023/12/18 07:51:51;;;;;;;28.63;26.00;;;;;;;;;;4991393;28;20477;-76
2023/12/18 07:54:18;;;;;;;25.17;23.08;;;;;;;;;;4995654;28;20445;-76
2023/12/18 07:56:45;;;;;;;31.13;28.33;;;;;;;;;;5011543;28;20883;-75
2023/12/18 07:59:14;;;;;;;35.33;31.30;;;;;;;;;;5012172;28;20563;-75
2023/12/18 08:01:41;;;;;;;34.47;30.80;;;;;;;;;;5009945;28;20217;-75
2023/12/18 08:04:08;;;;;;;32.60;29.33;;;;;;;;;;4997524;28;20206;-75
2023/12/18 08:06:36;;;;;;;30.00;27.15;;;;;;;;;;5011855;28;20473;-75
2023/12/18 08:09:03;;;;;;;34.08;30.90;;;;;;;;;;5011706;28;20225;-76
2023/12/18 08:11:31;;;;;;;34.92;31.52;;;;;;;;;;5003290;28;20210;-75
2023/12/18 08:13:58;;;;;;;31.60;28.60;;;;;;;;;;5010584;28;20672;-75
2023/12/18 08:16:25;;;;;;;33.85;28.98;;;;;;;;;;5011743;28;20284;-75
2023/12/18 08:18:52;;;;;;;33.45;29.50;;;;;;;;;;5011586;28;20213;-75
2023/12/18 08:21:19;;;;;;;31.98;29.02;;;;;;;;;;5010132;28;20205;-77
2023/12/18 08:23:48;;;;;;;32.30;29.10;;;;;;;;;;5000467;28;20210;-75
2023/12/18 08:26:16;;;;;;;32.30;29.00;;;;;;;;;;5002500;28;20222;-74
2023/12/18 08:28:44;;;;;;;33.95;30.45;;;;;;;;;;5010886;28;20487;-75
2023/12/18 08:31:11;;;;;;;27.05;24.95;;;;;;;;;;5009219;28;20212;-75
2023/12/18 08:33:38;;;;;;;26.20;23.92;;;;;;;;;;5003295;28;20270;-75
2023/12/18 08:36:05;;;;;;;29.93;27.30;;;;;;;;;;5012738;28;20264;-83
2023/12/18 08:38:32;;;;;;;25.03;23.13;;;;;;;;;;5017821;28;20475;-82
2023/12/18 08:41:01;;;;;;;29.80;27.00;;;;;;;;;;5014235;28;20464;-80
2023/12/18 08:43:28;;;;;;;31.10;27.93;;;;;;;;;;4998671;28;20933;-80
2023/12/18 08:45:55;;;;;;;30.93;27.93;;;;;;;;;;5002061;28;20452;-81
2023/12/18 08:48:22;;;;;;;24.40;22.35;;;;;;;;;;5005725;28;20509;-81
2023/12/18 08:50:49;;;;;;;31.95;28.95;;;;;;;;;;5018365;28;20220;-81
2023/12/18 08:53:16;;;;;;;31.00;28.27;;;;;;;;;;5019305;28;20244;-81
2023/12/18 08:55:43;;;;;;;32.53;28.60;;;;;;;;;;5019252;28;20510;-81
2023/12/18 08:58:11;;;;;;;26.40;24.00;;;;;;;;;;5019716;28;20449;-82
2023/12/18 09:00:39;;;;;;;29.07;26.50;;;;;;;;;;5018678;28;20653;-82
2023/12/18 09:03:06;;;;;;;28.07;25.37;;;;;;;;;;5022496;28;20448;-82
2023/12/18 09:05:33;;;;;;;30.57;27.90;;;;;;;;;;5020907;28;20459;-81
2023/12/18 09:08:01;;;;;;;31.37;27.97;;;;;;;;;;5015828;28;20883;-84
2023/12/18 09:10:29;;;;;;;33.07;29.70;;;;;;;;;;5021788;28;20504;-88
2023/12/18 09:12:56;;;;;;;33.38;30.15;;;;;;;;;;5024330;28;20471;-81
2023/12/18 09:15:24;;;;;;;23.50;21.90;;;;;;;;;;5024190;28;20294;-82
2023/12/18 09:17:51;;;;;;;33.88;30.35;;;;;;;;;;5023547;28;21058;-82
2023/12/18 09:20:18;;;;;;;34.15;30.90;;;;;;;;;;5023158;28;20587;-82
2023/12/18 09:22:48;;;;;;;23.77;21.98;;;;;;;;;;5022598;28;20209;-82
2023/12/18 09:25:15;;;;;;;29.00;26.20;;;;;;;;;;5011993;28;20563;-81
2023/12/18 09:27:42;;;;;;;32.05;28.90;;;;;;;;;;5002970;28;20241;-81
2023/12/18 09:30:10;;;;;;;33.13;30.20;;;;;;;;;;5003576;28;20218;-81
2023/12/18 09:32:38;;;;;;;30.33;27.52;;;;;;;;;;5002283;28;20460;-81
2023/12/18 09:35:06;;;;;;;32.47;29.70;;;;;;;;;;5002905;28;20202;-81
2023/12/18 09:37:33;;;;;;;27.75;25.20;;;;;;;;;;5002893;28;20281;-81
2023/12/18 09:39:59;;;;;;;31.10;27.90;;;;;;;;;;5008664;28;20210;-81
2023/12/18 09:42:27;;;;;;;28.83;25.97;;;;;;;;;;5006085;28;20239;-82
2023/12/18 09:44:54;;;;;;;32.67;29.80;;;;;;;;;;5005125;28;20446;-82
2023/12/18 09:47:21;;;;;;;32.97;30.00;;;;;;;;;;5011580;28;20467;-81
2023/12/18 09:49:50;;;;;;;27.10;24.50;;;;;;;;;;5022252;28;20229;-81
2023/12/18 09:52:19;;;;;;;25.27;22.98;;;;;;;;;;5021860;28;20678;-82
2023/12/18 09:54:46;;;;;;;27.98;25.48;;;;;;;;;;5022003;28;20662;-81
2023/12/18 09:57:15;;;;;;;25.70;23.60;;;;;;;;;;5005520;28;20296;-81
2023/12/18 09:59:42;;;;;;;24.53;22.93;;;;;;;;;;5003436;28;20205;-81
2023/12/18 10:02:09;;;;;;;26.42;24.05;;;;;;;;;;5009630;28;20445;-80
2023/12/18 10:04:37;;;;;;;31.40;28.33;;;;;;;;;;5018838;28;20216;-81
2023/12/18 10:07:05;;;;;;;32.75;29.65;;;;;;;;;;5020697;28;20542;-80
2023/12/18 10:09:34;;;;;;;25.63;23.60;;;;;;;;;;5021761;28;20225;-81
2023/12/18 10:12:02;;;;;;;27.23;24.92;;;;;;;;;;5021258;28;20212;-81
2023/12/18 10:14:29;;;;;;;29.25;26.75;;;;;;;;;;5021575;28;20728;-83
2023/12/18 10:16:57;;;;;;;30.05;27.38;;;;;;;;;;5022476;28;20222;-82
2023/12/18 10:19:27;;;;;;;30.92;28.00;;;;;;;;;;5023075;28;20309;-83
2023/12/18 10:21:54;;;;;;;32.92;29.65;;;;;;;;;;5022019;28;20312;-82
2023/12/18 10:24:22;;;;;;;28.33;25.88;;;;;;;;;;5008772;28;20297;-81
2023/12/18 10:26:49;;;;;;;30.58;27.98;;;;;;;;;;5001420;28;20326;-83
2023/12/18 10:29:16;;;;;;;32.53;29.23;;;;;;;;;;5002146;28;20224;-82
2023/12/18 10:31:43;;;;;;;27.30;25.27;;;;;;;;;;5001179;28;20225;-82
2023/12/18 10:34:10;;;;;;;25.85;23.95;;;;;;;;;;5000740;28;20531;-81
2023/12/18 10:36:39;;;;;;;28.10;25.60;;;;;;;;;;5010306;28;20233;-78
2023/12/18 10:39:09;;;;;;;30.52;27.98;;;;;;;;;;5002622;28;20449;-79
2023/12/18 10:41:39;;;;;;;27.98;25.27;;;;;;;;;;5000965;28;20203;-79
2023/12/18 10:44:06;;;;;;;32.73;29.80;;;;;;;;;;5004448;28;20210;-85
2023/12/18 10:46:33;;;;;;;30.63;27.80;;;;;;;;;;5002491;28;20473;-83
2023/12/18 10:49:01;;;;;;;27.70;25.27;;;;;;;;;;5000720;28;20225;-82
2023/12/18 10:51:28;;;;;;;28.10;25.60;;;;;;;;;;5000352;28;20642;-83
2023/12/18 10:53:55;;;;;;;30.37;27.60;;;;;;;;;;5021095;28;20986;-82
2023/12/18 10:56:23;;;;;;;33.17;30.00;;;;;;;;;;5020893;28;20499;-82
2023/12/18 10:58:53;;;;;;;32.03;29.30;;;;;;;;;;5021017;28;20455;-83
2023/12/18 11:01:21;;;;;;;30.65;28.00;;;;;;;;;;5020476;28;20476;-82
2023/12/18 11:03:48;;;;;;;32.25;29.10;;;;;;;;;;5016153;28;20252;-79
2023/12/18 11:06:15;;;;;;;27.70;25.50;;;;;;;;;;4994949;28;20222;-78
2023/12/18 11:08:43;;;;;;;27.23;24.90;;;;;;;;;;4994635;28;20210;-78
2023/12/18 11:11:11;;;;;;;30.03;27.10;;;;;;;;;;4994101;28;20453;-78
2023/12/18 11:13:45;;;;;;;33.50;29.90;;;;;;;;;;4994818;28;20504;-78
2023/12/18 11:16:17;;;;;;;32.90;29.70;;;;;;;;;;4994694;28;20229;-78
2023/12/18 11:18:49;;;;;;;30.13;27.23;;;;;;;;;;4994698;28;20519;-78
2023/12/18 11:21:16;;;;;;;27.87;25.57;;;;;;;;;;4995461;28;20439;-77
2023/12/18 11:23:43;;;;;;;32.37;29.20;;;;;;;;;;5006886;28;20423;-81
2023/12/18 11:26:13;;;;;;;23.00;21.25;;;;;;;;;;5014342;28;20477;-79
2023/12/18 11:28:41;;;;;;;30.02;26.25;;;;;;;;;;5015194;28;20210;-79
2023/12/18 11:31:10;;;;;;;26.38;24.17;;;;;;;;;;5016038;28;20666;-78
2023/12/18 11:33:58;;;;;;;28.95;26.55;;;;;;;;;;5016289;28;20217;-79
2023/12/18 11:36:26;;;;;;;26.90;24.20;;;;;;;;;;5016704;28;20234;-78
2023/12/18 11:38:53;;;;;;;31.80;28.77;;;;;;;;;;5016708;28;20272;-79
2023/12/18 11:41:38;;;;;;;32.10;29.00;;;;;;;;;;5015962;28;20499;-79
2023/12/18 11:44:08;;;;;;;27.08;24.85;;;;;;;;;;5016708;28;20452;-78
2023/12/18 11:46:35;;;;;;;27.60;25.30;;;;;;;;;;5016493;28;20240;-78
2023/12/18 11:49:04;;;;;;;29.90;26.85;;;;;;;;;;5016058;28;20605;-78
2023/12/18 11:51:31;;;;;;;27.38;25.05;;;;;;;;;;5015741;28;20202;-79
2023/12/18 11:53:59;;;;;;;33.42;30.40;;;;;;;;;;5016706;28;20205;-79
2023/12/18 11:56:28;;;;;;;62.55;28.90;;;;;;;;;;5016547;28;20228;-78
2023/12/18 11:58:55;;;;;;;33.03;29.90;;;;;;;;;;5016747;28;20216;-79
2023/12/18 12:01:22;;;;;;;31.80;28.57;;;;;;;;;;5016356;28;20812;-78
2023/12/18 12:03:50;;;;;;;25.00;23.10;;;;;;;;;;5016116;28;20519;-79
2023/12/18 12:06:18;;;;;;;30.45;27.52;;;;;;;;;;5016227;28;20225;-79
2023/12/18 12:08:48;;;;;;;29.55;26.95;;;;;;;;;;5012907;28;20209;-78
2023/12/18 12:11:15;;;;;;;33.15;29.90;;;;;;;;;;5014701;28;20232;-78
2023/12/18 12:13:42;;;;;;;30.37;27.70;;;;;;;;;;5014251;28;20322;-78
2023/12/18 12:16:09;;;;;;;30.92;28.02;;;;;;;;;;4994874;28;20470;-79
2023/12/18 12:18:45;;;;;;;33.88;30.65;;;;;;;;;;4994890;28;20265;-78
2023/12/18 12:21:12;;;;;;;33.20;29.90;;;;;;;;;;4994445;28;20285;-78
2023/12/18 12:23:41;;;;;;;33.88;30.55;;;;;;;;;;4995287;28;20457;-78
2023/12/18 12:26:08;;;;;;;35.03;31.77;;;;;;;;;;5013942;28;20229;-78
2023/12/18 12:28:36;;;;;;;28.15;25.70;;;;;;;;;;5013534;28;20613;-78
2023/12/18 12:31:03;;;;;;;30.73;27.57;;;;;;;;;;5013778;28;20225;-78
2023/12/18 12:33:39;;;;;;;31.40;28.60;;;;;;;;;;4997949;28;20445;-78
2023/12/18 12:36:07;;;;;;;32.37;29.07;;;;;;;;;;4993630;28;20440;-78
2023/12/18 12:38:36;;;;;;;32.93;29.67;;;;;;;;;;4994357;28;20461;-78
2023/12/18 12:41:04;;;;;;;28.38;26.08;;;;;;;;;;4994317;28;20472;-79
2023/12/18 12:43:31;;;;;;;32.13;28.65;;;;;;;;;;4994228;28;20205;-78
2023/12/18 12:45:58;;;;;;;32.25;29.23;;;;;;;;;;4994420;28;20226;-78
2023/12/18 12:48:25;;;;;;;30.60;27.90;;;;;;;;;;4994367;28;20241;-78
2023/12/18 12:50:52;;;;;;;27.40;25.00;;;;;;;;;;4993966;28;20536;-79
2023/12/18 12:53:20;;;;;;;30.90;28.20;;;;;;;;;;4994914;28;20532;-78
2023/12/18 12:55:47;;;;;;;24.30;22.20;;;;;;;;;;4994515;28;20457;-78
2023/12/18 12:58:15;;;;;;;29.37;26.70;;;;;;;;;;5011970;28;20507;-83
2023/12/18 13:00:43;;;;;;;29.53;23.77;;;;;;;;;;5015076;28;20452;-79
2023/12/18 13:03:10;;;;;;;29.42;26.67;;;;;;;;;;5014721;28;20532;-78
2023/12/18 13:05:37;;;;;;;34.37;31.20;;;;;;;;;;4995536;28;20269;-80
2023/12/18 13:08:04;;;;;;;28.00;25.60;;;;;;;;;;5006436;28;20872;-79
2023/12/18 13:10:32;;;;;;;26.13;24.08;;;;;;;;;;4996737;28;20499;-79
2023/12/18 13:13:00;;;;;;;28.02;25.63;;;;;;;;;;4995571;28;20237;-79
2023/12/18 13:15:28;;;;;;;25.17;23.27;;;;;;;;;;4996006;28;20214;-78
2023/12/18 13:17:55;;;;;;;26.85;24.65;;;;;;;;;;4993849;28;20466;-79
2023/12/18 13:20:22;;;;;;;31.50;28.48;;;;;;;;;;5012196;28;20209;-78
2023/12/18 13:22:49;;;;;;;34.93;31.50;;;;;;;;;;5014117;28;20209;-78
2023/12/18 13:25:17;;;;;;;25.27;23.50;;;;;;;;;;5013554;28;20447;-79
2023/12/18 13:27:44;;;;;;;26.70;24.70;;;;;;;;;;5013572;28;20468;-80
2023/12/18 13:30:11;;;;;;;35.43;31.73;;;;;;;;;;5012451;28;20479;-77
2023/12/18 13:32:39;;;;;;;29.57;27.17;;;;;;;;;;5009662;28;20539;-77
2023/12/18 13:35:08;;;;;;;30.17;27.77;;;;;;;;;;4996788;28;20480;-77
2023/12/18 13:37:35;;;;;;;26.90;24.43;;;;;;;;;;5007510;28;20487;-77
2023/12/18 13:40:03;;;;;;;26.58;24.27;;;;;;;;;;5011649;28;20455;-77
2023/12/18 13:42:30;;;;;;;27.17;24.73;;;;;;;;;;5010351;28;20210;-76
2023/12/18 13:44:57;;;;;;;31.50;28.23;;;;;;;;;;5009680;28;20244;-76
2023/12/18 13:47:26;;;;;;;27.67;25.27;;;;;;;;;;5010639;28;20595;-77
2023/12/18 13:49:54;;;;;;;26.25;23.77;;;;;;;;;;5014264;28;20589;-77
2023/12/18 13:52:21;;;;;;;29.88;27.08;;;;;;;;;;5013953;28;20209;-77
2023/12/18 13:54:48;;;;;;;24.25;22.45;;;;;;;;;;5013755;28;20205;-76
2023/12/18 13:57:16;;;;;;;22.27;20.80;;;;;;;;;;5009987;28;20229;-77
2023/12/18 13:59:43;;;;;;;26.83;24.43;;;;;;;;;;5002162;28;20880;-76
2023/12/18 14:02:10;;;;;;;26.70;24.63;;;;;;;;;;4993967;28;20508;-76
2023/12/18 14:04:37;;;;;;;27.88;25.42;;;;;;;;;;5000663;28;20419;-77
2023/12/18 14:07:05;;;;;;;28.20;25.85;;;;;;;;;;5013705;28;20264;-76
2023/12/18 14:09:33;;;;;;;29.23;26.55;;;;;;;;;;5014225;28;20205;-77
2023/12/18 14:12:00;;;;;;;21.60;20.27;;;;;;;;;;5013269;28;20213;-76
2023/12/18 14:14:27;;;;;;;26.57;24.30;;;;;;;;;;5014015;28;20453;-77
2023/12/18 14:16:53;;;;;;;28.35;25.85;;;;;;;;;;5013719;28;20476;-77